createdAt,value
2023-01-12T00:01:39.122Z,101398.81
2023-01-12T00:04:06.323Z,101394.81
2023-01-12T00:06:33.435Z,101395.22
2023-01-12T00:09:02.556Z,101385.03
2023-01-12T00:11:29.345Z,101385.19
2023-01-12T00:13:55.809Z,101399.59
2023-01-12T00:16:39.355Z,101398.50
2023-01-12T00:19:11.604Z,101394.38
2023-01-12T00:21:46.353Z,101392.91
2023-01-12T00:24:13.374Z,101396.47
2023-01-12T00:26:39.780Z,101413.25
2023-01-12T00:29:06.197Z,101408.94
2023-01-12T00:31:32.653Z,101400.81
2023-01-12T00:33:59.116Z,101388.81
2023-01-12T00:36:25.559Z,101394.72
2023-01-12T00:38:52.009Z,101399.94
2023-01-12T00:41:36.824Z,101407.63
2023-01-12T00:44:23.072Z,101407.47
2023-01-12T00:46:49.721Z,101420.50
2023-01-12T00:49:16.314Z,101420.91
2023-01-12T00:51:42.760Z,101409.47
2023-01-12T00:54:09.166Z,101413.59
2023-01-12T00:56:36.642Z,101417.91
2023-01-12T00:59:04.076Z,101411.50
2023-01-12T01:01:31.539Z,101418.47
2023-01-12T01:03:58.081Z,101416.53
2023-01-12T01:06:24.766Z,101412.00
2023-01-12T01:08:51.328Z,101404.75
2023-01-12T01:11:18.127Z,101403.75
2023-01-12T01:13:44.898Z,101416.00
2023-01-12T01:16:14.496Z,101422.53
2023-01-12T01:18:41.496Z,101419.66
2023-01-12T01:21:12.530Z,101425.41
2023-01-12T01:23:40.821Z,101430.59
2023-01-12T01:26:10.291Z,101432.28
2023-01-12T01:28:37.177Z,101428.63
2023-01-12T01:31:26.412Z,101429.69
2023-01-12T01:33:53.253Z,101434.38
2023-01-12T01:36:21.066Z,101419.81
2023-01-12T01:38:48.767Z,101420.03
2023-01-12T01:41:19.464Z,101433.97
2023-01-12T01:43:56.377Z,101444.06
2023-01-12T01:46:25.740Z,101467.75
2023-01-12T01:48:52.794Z,101464.81
2023-01-12T01:51:21.355Z,101456.16
2023-01-12T01:53:48.661Z,101448.97
2023-01-12T01:56:23.108Z,101443.38
2023-01-12T01:58:55.125Z,101440.81
2023-01-12T02:01:21.983Z,101438.38
2023-01-12T02:03:49.604Z,101446.59
2023-01-12T02:06:16.478Z,101448.75
2023-01-12T02:09:08.460Z,101453.63
2023-01-12T02:11:53.479Z,101452.50
2023-01-12T02:14:38.293Z,101453.78
2023-01-12T02:17:53.101Z,101452.97
2023-01-12T02:20:29.506Z,101439.22
2023-01-12T02:23:21.828Z,101447.97
2023-01-12T02:26:00.352Z,101451.22
2023-01-12T02:28:55.043Z,101447.03
2023-01-12T02:31:43.121Z,101435.75
2023-01-12T02:34:16.980Z,101423.06
2023-01-12T02:37:14.773Z,101427.63
2023-01-12T02:40:16.367Z,101419.81
2023-01-12T02:42:54.849Z,101427.69
2023-01-12T02:45:50.486Z,101411.72
2023-01-12T02:48:37.980Z,101423.19
2023-01-12T02:51:10.181Z,101420.53
2023-01-12T02:53:47.051Z,101429.31
2023-01-12T02:56:29.759Z,101436.75
2023-01-12T02:59:02.324Z,101435.84
2023-01-12T03:01:30.323Z,101442.84
2023-01-12T03:04:01.309Z,101443.88
2023-01-12T03:06:45.592Z,101436.13
2023-01-12T03:09:15.316Z,101431.19
2023-01-12T03:11:43.438Z,101441.84
2023-01-12T03:14:13.619Z,101447.97
2023-01-12T03:16:40.437Z,101448.06
2023-01-12T03:19:32.040Z,101455.56
2023-01-12T03:22:10.470Z,101452.94
2023-01-12T03:24:45.544Z,101448.16
2023-01-12T03:27:36.091Z,101439.78
2023-01-12T03:30:07.056Z,101444.47
2023-01-12T03:32:34.748Z,101445.00
2023-01-12T03:35:01.621Z,101452.63
2023-01-12T03:37:34.179Z,101454.72
2023-01-12T03:40:22.935Z,101464.28
2023-01-12T03:43:19.673Z,101469.69
2023-01-12T03:45:58.696Z,101465.31
2023-01-12T03:48:38.076Z,101464.38
2023-01-12T03:51:22.351Z,101472.31
2023-01-12T03:53:51.020Z,101476.97
2023-01-12T03:56:20.181Z,101471.00
2023-01-12T03:58:47.726Z,101481.03
2023-01-12T04:01:14.453Z,101485.59
2023-01-12T04:03:41.156Z,101485.69
2023-01-12T04:06:08.292Z,101486.81
2023-01-12T04:08:35.235Z,101489.06
2023-01-12T04:11:21.632Z,101489.44
2023-01-12T04:13:48.035Z,101483.34
2023-01-12T04:16:14.441Z,101471.09
2023-01-12T04:18:40.869Z,101473.41
2023-01-12T04:21:27.317Z,101476.97
2023-01-12T04:23:53.958Z,101483.75
2023-01-12T04:26:20.406Z,101478.97
2023-01-12T04:28:46.777Z,101488.59
2023-01-12T04:31:13.154Z,101493.69
2023-01-12T04:33:39.521Z,101493.97
2023-01-12T04:36:06.293Z,101498.47
2023-01-12T04:38:33.167Z,101502.13
2023-01-12T04:40:59.590Z,101504.56
2023-01-12T04:43:25.961Z,101503.59
2023-01-12T04:45:52.419Z,101509.47
2023-01-12T04:48:19.451Z,101505.84
2023-01-12T04:50:45.897Z,101497.28
2023-01-12T04:53:13.031Z,101503.56
2023-01-12T04:55:41.856Z,101503.84
2023-01-12T04:58:08.362Z,101492.50
2023-01-12T05:00:35.680Z,101497.47
2023-01-12T05:03:02.764Z,101500.63
2023-01-12T05:05:31.565Z,101503.66
2023-01-12T05:08:21.854Z,101507.59
2023-01-12T05:10:56.817Z,101501.31
2023-01-12T05:13:25.196Z,101508.41
2023-01-12T05:15:51.626Z,101518.44
2023-01-12T05:18:18.153Z,101522.88
2023-01-12T05:20:44.720Z,101514.03
2023-01-12T05:23:11.141Z,101514.16
2023-01-12T05:25:37.644Z,101518.53
2023-01-12T05:28:04.316Z,101509.13
2023-01-12T05:30:31.988Z,101509.03
2023-01-12T05:32:59.092Z,101519.06
2023-01-12T05:35:25.533Z,101521.94
2023-01-12T05:37:54.183Z,101524.06
2023-01-12T05:40:20.576Z,101545.91
2023-01-12T05:43:09.002Z,101555.63
2023-01-12T05:45:36.338Z,101569.00
2023-01-12T05:48:02.880Z,101557.91
2023-01-12T05:50:29.346Z,101558.41
2023-01-12T05:52:56.243Z,101566.41
2023-01-12T05:55:22.678Z,101571.84
2023-01-12T05:57:49.041Z,101577.94
2023-01-12T06:00:15.908Z,101568.06
2023-01-12T06:02:42.329Z,101578.03
2023-01-12T06:05:09.545Z,101599.31
2023-01-12T06:07:36.172Z,101608.63
2023-01-12T06:10:04.017Z,101596.91
2023-01-12T06:12:48.854Z,101581.13
2023-01-12T06:15:15.397Z,101595.94
2023-01-12T06:17:41.792Z,101614.84
2023-01-12T06:20:09.037Z,101614.22
2023-01-12T06:22:35.428Z,101618.34
2023-01-12T06:25:01.801Z,101608.03
2023-01-12T06:27:31.672Z,101608.47
2023-01-12T06:29:58.115Z,101607.63
2023-01-12T06:32:24.529Z,101608.63
2023-01-12T06:34:50.986Z,101612.84
2023-01-12T06:37:17.393Z,101607.06
2023-01-12T06:39:43.780Z,101611.72
2023-01-12T06:42:28.500Z,101618.19
2023-01-12T06:45:00.100Z,101629.06
2023-01-12T06:47:28.253Z,101624.91
2023-01-12T06:49:54.658Z,101632.16
2023-01-12T06:52:22.141Z,101632.88
2023-01-12T06:54:48.599Z,101637.94
2023-01-12T06:57:15.090Z,101637.38
2023-01-12T06:59:42.100Z,101646.81
2023-01-12T07:02:13.557Z,101646.09
2023-01-12T07:04:41.206Z,101637.72
2023-01-12T07:07:09.133Z,101633.56
2023-01-12T07:09:36.165Z,101636.94
2023-01-12T07:12:03.650Z,101641.16
2023-01-12T07:14:30.128Z,101638.09
2023-01-12T07:16:56.592Z,101635.56
2023-01-12T07:19:23.078Z,101645.13
2023-01-12T07:21:50.477Z,101659.25
2023-01-12T07:24:17.328Z,101662.97
2023-01-12T07:26:44.118Z,101673.50
2023-01-12T07:29:13.637Z,101673.75
2023-01-12T07:31:40.077Z,101675.56
2023-01-12T07:34:06.569Z,101685.03
2023-01-12T07:36:33.118Z,101676.88
2023-01-12T07:39:00.561Z,101680.31
2023-01-12T07:41:45.407Z,101673.53
2023-01-12T07:44:11.834Z,101676.91
2023-01-12T07:46:38.487Z,101678.53
2023-01-12T07:49:04.963Z,101676.78
2023-01-12T07:51:31.724Z,101684.75
2023-01-12T07:53:58.359Z,101675.16
2023-01-12T07:56:24.869Z,101671.91
2023-01-12T07:58:51.277Z,101676.53
2023-01-12T08:01:17.741Z,101674.88
2023-01-12T08:03:44.241Z,101667.66
2023-01-12T08:06:10.722Z,101663.50
2023-01-12T08:08:37.170Z,101665.28
2023-01-12T08:11:09.322Z,101679.41
2023-01-12T08:13:37.007Z,101686.72
2023-01-12T08:16:18.974Z,101702.69
2023-01-12T08:18:54.177Z,101717.72
2023-01-12T08:21:25.332Z,101727.41
2023-01-12T08:23:56.064Z,101728.41
2023-01-12T08:26:28.485Z,101731.69
2023-01-12T08:29:01.444Z,101729.78
2023-01-12T08:31:28.405Z,101732.06
2023-01-12T08:33:55.588Z,101742.56
2023-01-12T08:36:22.808Z,101737.03
2023-01-12T08:38:49.507Z,101741.75
2023-01-12T08:41:34.170Z,101738.81
2023-01-12T08:44:02.994Z,101735.72
2023-01-12T08:46:48.531Z,101739.41
2023-01-12T08:49:17.533Z,101745.56
2023-01-12T08:51:49.885Z,101748.03
2023-01-12T08:54:18.553Z,101740.97
2023-01-12T08:56:45.271Z,101754.00
2023-01-12T08:59:14.745Z,101762.53
2023-01-12T09:01:41.508Z,101764.06
2023-01-12T09:04:08.134Z,101764.59
2023-01-12T09:06:38.124Z,101764.88
2023-01-12T09:09:25.099Z,101769.69
2023-01-12T09:12:03.256Z,101753.38
2023-01-12T09:14:29.873Z,101751.75
2023-01-12T09:16:58.781Z,101746.44
2023-01-12T09:19:32.794Z,101741.97
2023-01-12T09:21:59.261Z,101755.72
2023-01-12T09:24:30.640Z,101753.66
2023-01-12T09:26:57.096Z,101755.88
2023-01-12T09:29:23.495Z,101756.09
2023-01-12T09:31:50.020Z,101760.97
2023-01-12T09:34:16.486Z,101771.69
2023-01-12T09:36:43.053Z,101767.19
2023-01-12T09:39:26.461Z,101760.75
2023-01-12T09:42:12.363Z,101752.28
2023-01-12T09:45:00.667Z,101747.56
2023-01-12T09:47:35.430Z,101752.34
2023-01-12T09:50:10.030Z,101746.94
2023-01-12T09:52:39.406Z,101760.66
2023-01-12T09:55:12.977Z,101757.66
2023-01-12T09:57:57.867Z,101752.56
2023-01-12T10:00:24.922Z,101741.59
2023-01-12T10:03:04.732Z,101747.09
2023-01-12T10:05:40.491Z,101752.22
2023-01-12T10:08:15.907Z,101748.91
2023-01-12T10:10:58.796Z,101749.28
2023-01-12T10:13:43.419Z,101740.78
2023-01-12T10:16:21.229Z,101744.69
2023-01-12T10:18:54.673Z,101751.84
2023-01-12T10:21:23.741Z,101763.19
2023-01-12T10:23:53.584Z,101770.66
2023-01-12T10:26:22.058Z,101766.16
2023-01-12T10:28:54.447Z,101761.41
2023-01-12T10:31:25.082Z,101759.22
2023-01-12T10:34:21.125Z,101758.88
2023-01-12T10:36:50.001Z,101747.22
2023-01-12T10:39:32.086Z,101746.53
2023-01-12T10:42:41.979Z,101739.09
2023-01-12T10:45:15.335Z,101748.06
2023-01-12T10:47:46.090Z,101739.13
2023-01-12T10:50:23.106Z,101743.34
2023-01-12T10:52:56.054Z,101759.03
2023-01-12T10:55:24.266Z,101761.97
2023-01-12T10:57:56.091Z,101759.78
2023-01-12T11:00:26.408Z,101765.44
2023-01-12T11:02:53.358Z,101768.91
2023-01-12T11:05:35.425Z,101770.91
2023-01-12T11:08:02.701Z,101763.53
2023-01-12T11:10:32.732Z,101756.22
2023-01-12T11:13:03.563Z,101765.97
2023-01-12T11:15:32.596Z,101764.88
2023-01-12T11:18:05.315Z,101757.97
2023-01-12T11:20:40.608Z,101758.91
2023-01-12T11:23:18.804Z,101750.69
2023-01-12T11:25:47.314Z,101752.00
2023-01-12T11:28:22.041Z,101752.34
2023-01-12T11:31:17.838Z,101748.13
2023-01-12T11:33:55.186Z,101744.31
2023-01-12T11:36:27.919Z,101750.19
2023-01-12T11:39:03.028Z,101748.34
2023-01-12T11:41:41.542Z,101733.75
2023-01-12T11:44:33.372Z,101712.38
2023-01-12T11:47:05.911Z,101710.03
2023-01-12T11:49:44.308Z,101716.22
2023-01-12T11:52:13.359Z,101720.97
2023-01-12T11:54:40.956Z,101704.91
2023-01-12T11:57:27.395Z,101708.56
2023-01-12T12:00:23.452Z,101709.66
2023-01-12T12:03:25.588Z,101715.31
2023-01-12T12:06:10.270Z,101718.06
2023-01-12T12:08:46.952Z,101716.94
2023-01-12T12:11:22.856Z,101705.75
2023-01-12T12:14:01.494Z,101683.97
2023-01-12T12:16:50.538Z,101694.59
2023-01-12T12:19:16.916Z,101689.47
2023-01-12T12:21:47.799Z,101688.16
2023-01-12T12:24:35.221Z,101682.69
2023-01-12T12:27:22.301Z,101670.94
2023-01-12T12:30:09.506Z,101674.41
2023-01-12T12:33:14.395Z,101670.16
2023-01-12T12:35:52.578Z,101664.44
2023-01-12T12:38:28.955Z,101658.75
2023-01-12T12:41:25.423Z,101645.38
2023-01-12T12:44:54.396Z,101641.38
2023-01-12T12:47:26.994Z,101641.41
2023-01-12T12:49:56.547Z,101636.28
2023-01-12T12:52:25.400Z,101639.38
2023-01-12T12:54:55.428Z,101640.28
2023-01-12T12:57:21.848Z,101643.56
2023-01-12T12:59:53.359Z,101645.88
2023-01-12T13:02:48.984Z,101636.00
2023-01-12T13:05:45.414Z,101630.22
2023-01-12T13:08:22.696Z,101631.09
2023-01-12T13:10:55.709Z,101628.31
2023-01-12T13:13:27.857Z,101617.09
2023-01-12T13:16:20.267Z,101617.94
2023-01-12T13:18:49.559Z,101618.81
2023-01-12T13:21:58.579Z,101612.75
2023-01-12T13:24:41.845Z,101607.25
2023-01-12T13:27:46.005Z,101611.47
2023-01-12T13:30:28.706Z,101613.13
2023-01-12T13:32:55.168Z,101601.53
2023-01-12T13:35:27.629Z,101610.91
2023-01-12T13:38:29.249Z,101599.59
2023-01-12T13:41:43.673Z,101603.31
2023-01-12T13:44:16.444Z,101591.72
2023-01-12T13:46:47.396Z,101579.97
2023-01-12T13:49:32.500Z,101579.06
2023-01-12T13:52:18.531Z,101569.56
2023-01-12T13:54:49.824Z,101583.88
2023-01-12T13:57:22.327Z,101575.81
2023-01-12T14:00:19.642Z,101568.47
2023-01-12T14:02:46.584Z,101568.81
2023-01-12T14:05:40.935Z,101568.13
2023-01-12T14:08:16.264Z,101566.31
2023-01-12T14:11:10.609Z,101568.56
2023-01-12T14:14:24.136Z,101567.09
2023-01-12T14:17:11.923Z,101566.78
2023-01-12T14:19:40.366Z,101551.38
2023-01-12T14:22:18.435Z,101553.78
2023-01-12T14:24:44.850Z,101555.28
2023-01-12T14:27:23.073Z,101569.00
2023-01-12T14:29:50.465Z,101565.63
2023-01-12T14:32:19.069Z,101562.34
2023-01-12T14:34:54.670Z,101556.13
2023-01-12T14:37:29.050Z,101551.38
2023-01-12T14:39:56.299Z,101540.81
2023-01-12T14:42:41.778Z,101549.22
2023-01-12T14:45:44.453Z,101546.50
2023-01-12T14:48:26.120Z,101538.31
2023-01-12T14:51:10.526Z,101535.56
2023-01-12T14:53:42.167Z,101536.13
2023-01-12T14:56:12.979Z,101547.09
2023-01-12T14:58:39.463Z,101538.50
2023-01-12T15:01:06.191Z,101538.50
2023-01-12T15:03:43.075Z,101539.28
2023-01-12T15:06:14.987Z,101535.25
2023-01-12T15:08:53.608Z,101546.06
2023-01-12T15:11:30.121Z,101540.94
2023-01-12T15:13:58.648Z,101541.53
2023-01-12T15:16:43.509Z,101544.66
2023-01-12T15:19:29.515Z,101541.25
2023-01-12T15:22:16.907Z,101540.53
2023-01-12T15:25:02.146Z,101549.19
2023-01-12T15:27:29.416Z,101550.13
2023-01-12T15:29:56.036Z,101545.25
2023-01-12T15:32:49.568Z,101537.94
2023-01-12T15:35:23.525Z,101539.81
2023-01-12T15:37:52.759Z,101533.06
2023-01-12T15:40:19.777Z,101529.63
2023-01-12T15:42:47.182Z,101527.69
2023-01-12T15:45:31.946Z,101520.16
2023-01-12T15:47:58.545Z,101522.72
2023-01-12T15:50:25.156Z,101522.03
2023-01-12T15:52:51.664Z,101521.31
2023-01-12T15:55:21.499Z,101522.59
2023-01-12T15:57:48.280Z,101512.78
2023-01-12T16:00:18.281Z,101518.09
2023-01-12T16:02:45.529Z,101510.06
2023-01-12T16:05:13.081Z,101504.75
2023-01-12T16:07:39.678Z,101503.88
2023-01-12T16:10:06.618Z,101502.81
2023-01-12T16:12:33.102Z,101504.66
2023-01-12T16:15:00.981Z,101509.41
2023-01-12T16:17:27.447Z,101510.19
2023-01-12T16:19:53.886Z,101522.97
2023-01-12T16:22:22.688Z,101514.00
2023-01-12T16:24:50.896Z,101519.50
2023-01-12T16:27:19.057Z,101520.59
2023-01-12T16:29:45.588Z,101531.19
2023-01-12T16:32:12.563Z,101529.56
2023-01-12T16:34:40.309Z,101533.22
2023-01-12T16:37:12.458Z,101526.63
2023-01-12T16:39:39.045Z,101535.41
2023-01-12T16:42:05.599Z,101542.88
2023-01-12T16:44:37.182Z,101547.09
2023-01-12T16:47:09.835Z,101556.97
2023-01-12T16:49:36.511Z,101556.97
2023-01-12T16:52:04.981Z,101553.31
2023-01-12T16:54:33.274Z,101559.13
2023-01-12T16:56:59.942Z,101561.69
2023-01-12T16:59:28.472Z,101555.88
2023-01-12T17:01:55.085Z,101550.00
2023-01-12T17:04:22.715Z,101545.97
2023-01-12T17:06:49.291Z,101542.47
2023-01-12T17:09:15.930Z,101553.03
2023-01-12T17:11:43.706Z,101545.22
2023-01-12T17:14:24.284Z,101540.44
2023-01-12T17:16:57.167Z,101557.59
2023-01-12T17:19:26.007Z,101555.97
2023-01-12T17:21:54.760Z,101548.47
2023-01-12T17:24:22.089Z,101553.22
2023-01-12T17:26:51.576Z,101545.75
2023-01-12T17:29:18.160Z,101545.03
2023-01-12T17:31:45.041Z,101551.00
2023-01-12T17:34:12.821Z,101556.25
2023-01-12T17:36:39.591Z,101567.00
2023-01-12T17:39:06.354Z,101566.69
2023-01-12T17:41:51.115Z,101561.22
2023-01-12T17:44:17.848Z,101561.00
2023-01-12T17:46:44.762Z,101564.44
2023-01-12T17:49:11.537Z,101552.88
2023-01-12T17:51:39.428Z,101554.88
2023-01-12T17:54:08.162Z,101546.09
2023-01-12T17:56:35.495Z,101546.09
2023-01-12T17:59:03.149Z,101540.44
2023-01-12T18:01:32.001Z,101535.16
2023-01-12T18:03:59.852Z,101536.44
2023-01-12T18:06:27.325Z,101528.78
2023-01-12T18:08:56.639Z,101531.28
2023-01-12T18:11:23.733Z,101540.91
2023-01-12T18:13:50.226Z,101540.34
2023-01-12T18:16:17.619Z,101542.56
2023-01-12T18:18:44.388Z,101537.81
2023-01-12T18:21:13.948Z,101551.09
2023-01-12T18:23:43.548Z,101550.97
2023-01-12T18:26:14.311Z,101540.38
2023-01-12T18:28:41.587Z,101544.78
2023-01-12T18:31:20.218Z,101543.47
2023-01-12T18:33:56.476Z,101540.75
2023-01-12T18:36:25.163Z,101548.34
2023-01-12T18:38:52.497Z,101538.88
2023-01-12T18:41:38.756Z,101537.34
2023-01-12T18:44:06.532Z,101535.72
2023-01-12T18:46:59.583Z,101531.19
2023-01-12T18:49:29.058Z,101530.78
2023-01-12T18:52:14.649Z,101535.47
2023-01-12T18:54:53.244Z,101532.19
2023-01-12T18:57:23.843Z,101518.72
2023-01-12T19:00:17.705Z,101520.53
2023-01-12T19:02:44.542Z,101520.50
2023-01-12T19:05:19.933Z,101518.72
2023-01-12T19:07:58.459Z,101518.31
2023-01-12T19:10:25.976Z,101510.69
2023-01-12T19:13:12.417Z,101503.75
2023-01-12T19:15:57.771Z,101498.25
2023-01-12T19:18:24.207Z,101493.53
2023-01-12T19:20:50.648Z,101483.16
2023-01-12T19:23:35.644Z,101491.16
2023-01-12T19:26:22.150Z,101505.88
2023-01-12T19:28:48.595Z,101505.31
2023-01-12T19:31:17.934Z,101506.56
2023-01-12T19:33:44.424Z,101501.66
2023-01-12T19:36:15.443Z,101490.59
2023-01-12T19:38:50.606Z,101491.66
2023-01-12T19:41:35.446Z,101489.78
2023-01-12T19:44:05.256Z,101492.72
2023-01-12T19:46:33.071Z,101489.41
2023-01-12T19:48:59.594Z,101490.53
2023-01-12T19:51:26.019Z,101493.66
2023-01-12T19:53:52.407Z,101481.50
2023-01-12T19:56:18.839Z,101486.59
2023-01-12T19:58:45.269Z,101485.16
2023-01-12T20:01:20.314Z,101495.00
2023-01-12T20:03:47.075Z,101488.97
2023-01-12T20:06:13.489Z,101487.66
2023-01-12T20:08:41.493Z,101482.38
2023-01-12T20:11:08.287Z,101483.47
2023-01-12T20:13:35.417Z,101480.22
2023-01-12T20:16:08.734Z,101477.47
2023-01-12T20:18:35.181Z,101467.47
2023-01-12T20:21:03.274Z,101451.22
2023-01-12T20:23:29.657Z,101448.84
2023-01-12T20:25:56.140Z,101452.31
2023-01-12T20:28:22.537Z,101441.88
2023-01-12T20:30:49.027Z,101439.88
2023-01-12T20:33:15.707Z,101443.41
2023-01-12T20:35:46.909Z,101442.13
2023-01-12T20:38:15.730Z,101449.09
2023-01-12T20:40:46.062Z,101437.97
2023-01-12T20:43:12.840Z,101433.03
2023-01-12T20:45:41.703Z,101430.13
2023-01-12T20:48:08.855Z,101434.16
2023-01-12T20:50:35.524Z,101427.91
2023-01-12T20:53:01.959Z,101436.47
2023-01-12T20:55:28.384Z,101434.50
2023-01-12T20:57:54.836Z,101452.38
2023-01-12T21:00:21.385Z,101445.25
2023-01-12T21:02:47.827Z,101433.81
2023-01-12T21:05:14.243Z,101429.03
2023-01-12T21:07:40.665Z,101432.66
2023-01-12T21:10:09.006Z,101427.16
2023-01-12T21:12:35.492Z,101424.81
2023-01-12T21:15:03.527Z,101419.72
2023-01-12T21:17:31.098Z,101415.84
2023-01-12T21:19:57.633Z,101422.75
2023-01-12T21:22:24.027Z,101429.63
2023-01-12T21:24:50.513Z,101429.63
2023-01-12T21:27:17.083Z,101432.38
2023-01-12T21:29:43.559Z,101428.16
2023-01-12T21:32:10.122Z,101418.31
2023-01-12T21:34:36.539Z,101419.09
2023-01-12T21:37:03.551Z,101423.13
2023-01-12T21:39:30.013Z,101430.41
2023-01-12T21:42:14.802Z,101433.44
2023-01-12T21:44:41.345Z,101428.19
2023-01-12T21:47:07.773Z,101418.53
2023-01-12T21:49:34.204Z,101418.31
2023-01-12T21:52:00.746Z,101412.44
2023-01-12T21:54:27.487Z,101417.81
2023-01-12T21:56:53.891Z,101425.13
2023-01-12T21:59:20.277Z,101431.38
2023-01-12T22:01:46.824Z,101426.94
2023-01-12T22:04:13.386Z,101432.97
2023-01-12T22:06:39.857Z,101430.22
2023-01-12T22:09:06.303Z,101428.06
2023-01-12T22:11:32.731Z,101422.06
2023-01-12T22:13:59.152Z,101427.72
2023-01-12T22:16:25.897Z,101429.16
2023-01-12T22:18:52.375Z,101430.56
2023-01-12T22:21:20.824Z,101426.75
2023-01-12T22:23:47.933Z,101431.34
2023-01-12T22:26:15.799Z,101428.75
2023-01-12T22:28:44.341Z,101424.72
2023-01-12T22:31:13.531Z,101419.25
2023-01-12T22:33:43.104Z,101416.91
2023-01-12T22:36:09.653Z,101413.81
2023-01-12T22:38:36.594Z,101407.97
2023-01-12T22:41:05.413Z,101406.13
2023-01-12T22:43:32.040Z,101397.50
2023-01-12T22:45:58.482Z,101392.03
2023-01-12T22:48:26.431Z,101383.50
2023-01-12T22:50:54.619Z,101388.91
2023-01-12T22:53:24.171Z,101388.53
2023-01-12T22:55:51.732Z,101388.66
2023-01-12T22:58:18.488Z,101392.47
2023-01-12T23:00:45.388Z,101393.75
2023-01-12T23:03:13.654Z,101385.78
2023-01-12T23:05:49.234Z,101381.06
2023-01-12T23:08:16.454Z,101380.66
2023-01-12T23:10:43.901Z,101383.81
2023-01-12T23:13:19.468Z,101383.63
2023-01-12T23:15:45.994Z,101381.66
2023-01-12T23:18:18.534Z,101375.69
2023-01-12T23:20:45.879Z,101377.31
2023-01-12T23:23:13.240Z,101375.31
2023-01-12T23:25:39.868Z,101371.31
2023-01-12T23:28:07.657Z,101373.09
2023-01-12T23:30:34.113Z,101376.56
2023-01-12T23:33:05.396Z,101380.72
2023-01-12T23:35:38.235Z,101378.91
2023-01-12T23:38:05.692Z,101385.25
2023-01-12T23:40:32.464Z,101383.41
2023-01-12T23:43:00.539Z,101379.91
2023-01-12T23:45:27.108Z,101378.59
2023-01-12T23:47:53.504Z,101370.75
2023-01-12T23:50:20.796Z,101378.44
2023-01-12T23:52:48.934Z,101380.66
2023-01-12T23:55:15.634Z,101382.66
2023-01-12T23:57:42.059Z,101389.19
